createdAt,value
2019-02-10T00:00:41.713Z,63.33
2019-02-10T00:01:49.801Z,63.35
2019-02-10T00:02:54.873Z,63.36
2019-02-10T00:04:00.408Z,63.37
2019-02-10T00:05:06.092Z,63.38
2019-02-10T00:06:11.417Z,63.37
2019-02-10T00:07:16.922Z,63.36
2019-02-10T00:08:21.959Z,63.34
2019-02-10T00:09:27.725Z,63.37
2019-02-10T00:10:32.815Z,63.40
2019-02-10T00:11:37.785Z,63.44
2019-02-10T00:13:03.598Z,63.45
2019-02-10T00:14:08.672Z,63.50
2019-02-10T00:15:13.967Z,63.48
2019-02-10T00:16:20.506Z,63.54
2019-02-10T00:17:25.536Z,63.58
2019-02-10T00:18:31.435Z,63.59
2019-02-10T00:19:36.717Z,63.60
2019-02-10T00:20:41.723Z,63.57
2019-02-10T00:21:46.722Z,63.57
2019-02-10T00:22:51.766Z,63.62
2019-02-10T00:23:56.901Z,63.66
2019-02-10T00:25:02.359Z,63.67
2019-02-10T00:26:07.739Z,63.64
2019-02-10T00:27:13.165Z,63.64
2019-02-10T00:28:18.257Z,63.64
2019-02-10T00:29:23.252Z,63.62
2019-02-10T00:30:28.295Z,63.63
2019-02-10T00:31:33.424Z,63.63
2019-02-10T00:32:38.944Z,63.66
2019-02-10T00:33:44.256Z,63.65
2019-02-10T00:34:49.589Z,63.68
2019-02-10T00:35:54.699Z,63.74
2019-02-10T00:36:59.776Z,63.80
2019-02-10T00:38:05.397Z,63.82
2019-02-10T00:39:10.566Z,63.89
2019-02-10T00:40:15.484Z,63.96
2019-02-10T00:41:20.671Z,63.98
2019-02-10T00:42:25.695Z,63.97
2019-02-10T00:43:31.159Z,63.96
2019-02-10T00:44:36.142Z,63.98
2019-02-10T00:45:41.298Z,63.99
2019-02-10T00:46:46.317Z,64.00
2019-02-10T00:47:51.365Z,64.10
2019-02-10T00:48:56.460Z,64.10
2019-02-10T00:50:01.908Z,64.09
2019-02-10T00:51:07.216Z,64.08
2019-02-10T00:52:12.303Z,64.06
2019-02-10T00:53:17.247Z,64.02
2019-02-10T00:54:22.305Z,64.00
2019-02-10T00:55:28.075Z,63.99
2019-02-10T00:56:33.361Z,63.96
2019-02-10T00:57:39.007Z,63.93
2019-02-10T00:58:44.751Z,63.91
2019-02-10T00:59:49.755Z,63.86
2019-02-10T01:00:54.962Z,63.83
2019-02-10T01:02:00.017Z,63.79
2019-02-10T01:03:05.292Z,64.34
2019-02-10T01:04:10.691Z,64.34
2019-02-10T01:05:16.030Z,63.78
2019-02-10T01:06:21.389Z,63.75
2019-02-10T01:07:26.516Z,63.78
2019-02-10T01:08:31.674Z,63.79
2019-02-10T01:09:36.653Z,63.79
2019-02-10T01:10:41.716Z,63.75
2019-02-10T01:11:46.796Z,63.75
2019-02-10T01:12:51.794Z,63.77
2019-02-10T01:13:56.897Z,63.74
2019-02-10T01:15:02.288Z,63.73
2019-02-10T01:16:07.644Z,63.72
2019-02-10T01:17:13.550Z,63.99
2019-02-10T01:18:18.978Z,63.99
2019-02-10T01:19:24.025Z,63.74
2019-02-10T01:20:29.188Z,63.78
2019-02-10T01:21:34.238Z,63.89
2019-02-10T01:22:39.303Z,63.92
2019-02-10T01:23:44.706Z,63.96
2019-02-10T01:24:50.069Z,64.01
2019-02-10T01:25:55.054Z,64.05
2019-02-10T01:27:00.060Z,64.10
2019-02-10T01:28:05.282Z,64.15
2019-02-10T01:29:11.154Z,64.15
2019-02-10T01:30:16.706Z,64.18
2019-02-10T01:31:22.117Z,64.22
2019-02-10T01:32:27.160Z,64.30
2019-02-10T01:33:32.462Z,64.37
2019-02-10T01:34:37.511Z,64.37
2019-02-10T01:35:43.172Z,64.39
2019-02-10T01:36:49.821Z,64.45
2019-02-10T01:37:55.074Z,64.45
2019-02-10T01:39:00.184Z,64.46
2019-02-10T01:40:06.281Z,64.50
2019-02-10T01:41:11.647Z,64.51
2019-02-10T01:42:17.062Z,64.56
2019-02-10T01:43:22.070Z,64.63
2019-02-10T01:44:27.113Z,64.63
2019-02-10T01:45:32.293Z,64.68
2019-02-10T01:46:37.572Z,64.69
2019-02-10T01:47:42.561Z,64.71
2019-02-10T01:48:47.658Z,64.74
2019-02-10T01:49:52.703Z,64.73
2019-02-10T01:50:57.857Z,64.74
2019-02-10T01:52:03.324Z,64.74
2019-02-10T01:53:08.327Z,64.77
2019-02-10T01:54:13.430Z,64.77
2019-02-10T01:55:18.473Z,65.14
2019-02-10T01:56:23.763Z,65.14
2019-02-10T01:57:28.998Z,64.74
2019-02-10T01:58:33.963Z,64.75
2019-02-10T01:59:39.010Z,64.79
2019-02-10T02:00:44.146Z,64.85
2019-02-10T02:01:49.494Z,64.88
2019-02-10T02:02:54.865Z,64.89
2019-02-10T02:03:59.863Z,64.88
2019-02-10T02:05:06.632Z,64.91
2019-02-10T02:06:11.747Z,64.92
2019-02-10T02:07:16.802Z,64.93
2019-02-10T02:08:21.875Z,64.92
2019-02-10T02:09:27.030Z,64.91
2019-02-10T02:10:32.150Z,64.87
2019-02-10T02:11:37.622Z,64.87
2019-02-10T02:12:42.660Z,64.88
2019-02-10T02:13:48.089Z,64.95
2019-02-10T02:14:53.121Z,64.85
2019-02-10T02:15:58.765Z,64.80
2019-02-10T02:17:03.914Z,64.82
2019-02-10T02:18:09.331Z,64.81
2019-02-10T02:19:14.390Z,64.80
2019-02-10T02:20:19.589Z,64.81
2019-02-10T02:21:24.891Z,64.75
2019-02-10T02:22:29.914Z,64.77
2019-02-10T02:23:34.912Z,64.73
2019-02-10T02:24:39.844Z,64.72
2019-02-10T02:25:44.826Z,64.75
2019-02-10T02:26:49.829Z,64.72
2019-02-10T02:27:54.880Z,64.72
2019-02-10T02:28:59.984Z,64.73
2019-02-10T02:30:07.108Z,64.75
2019-02-10T02:31:12.310Z,64.85
2019-02-10T02:32:17.405Z,64.99
2019-02-10T02:33:22.395Z,65.12
2019-02-10T02:34:27.438Z,65.25
2019-02-10T02:35:32.471Z,65.40
2019-02-10T02:36:42.208Z,65.37
2019-02-10T02:37:47.409Z,65.37
2019-02-10T02:38:52.522Z,65.80
2019-02-10T02:39:57.510Z,65.87
2019-02-10T02:41:02.536Z,66.68
2019-02-10T02:42:09.552Z,66.68
2019-02-10T02:43:14.573Z,66.24
2019-02-10T02:44:19.606Z,66.46
2019-02-10T02:45:24.521Z,66.67
2019-02-10T02:46:29.564Z,66.89
2019-02-10T02:47:34.589Z,67.10
2019-02-10T02:48:39.553Z,67.20
2019-02-10T02:49:44.579Z,67.28
2019-02-10T02:50:50.153Z,67.43
2019-02-10T02:51:55.171Z,67.58
2019-02-10T02:53:00.515Z,67.71
2019-02-10T02:54:05.499Z,67.81
2019-02-10T02:55:10.923Z,67.91
2019-02-10T02:56:16.318Z,68.01
2019-02-10T02:57:21.823Z,67.67
2019-02-10T02:58:26.878Z,67.67
2019-02-10T02:59:32.182Z,68.34
2019-02-10T03:00:37.217Z,68.43
2019-02-10T03:01:42.602Z,68.43
2019-02-10T03:02:47.545Z,68.71
2019-02-10T03:03:52.729Z,68.85
2019-02-10T03:04:57.642Z,68.92
2019-02-10T03:06:02.927Z,68.64
2019-02-10T03:07:17.552Z,69.16
2019-02-10T03:08:14.897Z,69.33
2019-02-10T03:09:20.707Z,69.41
2019-02-10T03:10:25.917Z,69.52
2019-02-10T03:11:31.214Z,69.63
2019-02-10T03:12:36.653Z,69.73
2019-02-10T03:13:41.672Z,69.85
2019-02-10T03:14:46.801Z,69.97
2019-02-10T03:15:52.100Z,70.00
2019-02-10T03:16:57.088Z,70.32
2019-02-10T03:18:02.420Z,70.32
2019-02-10T03:19:07.596Z,70.64
2019-02-10T03:20:12.764Z,70.84
2019-02-10T03:21:17.708Z,71.07
2019-02-10T03:22:22.670Z,71.07
2019-02-10T03:23:27.877Z,71.15
2019-02-10T03:24:33.273Z,71.21
2019-02-10T03:25:38.597Z,71.33
2019-02-10T03:26:43.565Z,71.46
2019-02-10T03:27:48.545Z,71.47
2019-02-10T03:28:53.633Z,71.47
2019-02-10T03:29:59.388Z,71.83
2019-02-10T03:31:04.806Z,72.33
2019-02-10T03:32:09.878Z,72.33
2019-02-10T03:33:15.311Z,72.23
2019-02-10T03:34:20.787Z,72.34
2019-02-10T03:35:25.814Z,72.42
2019-02-10T03:36:30.844Z,72.42
2019-02-10T03:37:36.153Z,72.53
2019-02-10T03:38:41.092Z,72.31
2019-02-10T03:39:46.307Z,72.31
2019-02-10T03:40:51.625Z,72.66
2019-02-10T03:41:56.787Z,73.26
2019-02-10T03:43:01.806Z,72.82
2019-02-10T03:44:06.791Z,72.87
2019-02-10T03:45:12.067Z,72.99
2019-02-10T03:46:17.420Z,73.01
2019-02-10T03:47:22.742Z,73.08
2019-02-10T03:48:28.166Z,73.16
2019-02-10T03:49:33.276Z,73.16
2019-02-10T03:50:38.445Z,73.21
2019-02-10T03:51:43.731Z,73.27
2019-02-10T03:52:48.792Z,73.28
2019-02-10T03:53:53.840Z,73.37
2019-02-10T03:54:58.994Z,73.41
2019-02-10T03:56:04.016Z,73.61
2019-02-10T03:57:08.978Z,73.69
2019-02-10T03:58:14.084Z,73.71
2019-02-10T03:59:19.773Z,73.89
2019-02-10T04:00:24.801Z,73.92
2019-02-10T04:01:30.310Z,73.94
2019-02-10T04:02:35.639Z,74.02
2019-02-10T04:03:40.716Z,74.03
2019-02-10T04:04:46.059Z,74.08
2019-02-10T04:05:51.091Z,74.12
2019-02-10T04:06:56.057Z,74.09
2019-02-10T04:08:01.128Z,74.06
2019-02-10T04:09:07.253Z,73.64
2019-02-10T04:10:12.499Z,74.04
2019-02-10T04:11:17.753Z,74.12
2019-02-10T04:12:22.799Z,74.13
2019-02-10T04:13:27.843Z,74.17
2019-02-10T04:14:32.902Z,74.23
2019-02-10T04:15:37.878Z,74.27
2019-02-10T04:16:42.840Z,74.81
2019-02-10T04:17:48.129Z,74.34
2019-02-10T04:18:53.333Z,74.33
2019-02-10T04:19:58.372Z,74.41
2019-02-10T04:21:03.426Z,74.46
2019-02-10T04:22:08.519Z,74.42
2019-02-10T04:23:13.468Z,74.44
2019-02-10T04:24:18.735Z,74.46
2019-02-10T04:25:23.748Z,74.44
2019-02-10T04:26:28.822Z,74.52
2019-02-10T04:27:34.095Z,74.52
2019-02-10T04:28:39.135Z,74.55
2019-02-10T04:29:44.295Z,74.59
2019-02-10T04:30:49.261Z,74.64
2019-02-10T04:31:54.324Z,74.63
2019-02-10T04:32:59.382Z,74.66
2019-02-10T04:34:04.400Z,74.74
2019-02-10T04:35:09.413Z,74.71
2019-02-10T04:36:14.457Z,74.75
2019-02-10T04:37:19.802Z,74.78
2019-02-10T04:38:24.961Z,74.78
2019-02-10T04:39:29.998Z,74.72
2019-02-10T04:40:35.081Z,74.72
2019-02-10T04:41:40.370Z,74.95
2019-02-10T04:42:45.428Z,75.01
2019-02-10T04:43:50.371Z,74.96
2019-02-10T04:44:55.386Z,75.06
2019-02-10T04:46:00.626Z,75.13
2019-02-10T04:47:05.771Z,75.17
2019-02-10T04:48:10.757Z,75.17
2019-02-10T04:49:16.019Z,75.29
2019-02-10T04:50:21.588Z,75.37
2019-02-10T04:51:26.583Z,75.36
2019-02-10T04:52:31.801Z,75.35
2019-02-10T04:53:36.948Z,75.38
2019-02-10T04:54:41.912Z,75.37
2019-02-10T04:56:10.264Z,75.34
2019-02-10T04:57:15.207Z,75.40
2019-02-10T04:58:20.319Z,75.25
2019-02-10T04:59:25.327Z,75.25
2019-02-10T05:00:30.374Z,75.46
2019-02-10T05:01:35.326Z,75.59
2019-02-10T05:02:40.572Z,76.40
2019-02-10T05:03:45.478Z,75.63
2019-02-10T05:04:50.980Z,75.64
2019-02-10T05:05:55.999Z,75.68
2019-02-10T05:07:01.381Z,75.62
2019-02-10T05:08:06.972Z,75.66
2019-02-10T05:09:12.270Z,75.98
2019-02-10T05:10:17.271Z,75.98
2019-02-10T05:11:22.217Z,75.84
2019-02-10T05:12:27.494Z,75.84
2019-02-10T05:13:32.638Z,75.85
2019-02-10T05:14:37.590Z,75.95
2019-02-10T05:15:42.594Z,75.95
2019-02-10T05:16:47.590Z,76.02
2019-02-10T05:17:52.523Z,76.02
2019-02-10T05:18:57.567Z,76.04
2019-02-10T05:20:02.552Z,76.05
2019-02-10T05:21:07.551Z,76.08
2019-02-10T05:22:12.585Z,76.04
2019-02-10T05:23:18.152Z,76.37
2019-02-10T05:24:23.303Z,76.37
2019-02-10T05:25:28.747Z,76.06
2019-02-10T05:26:33.780Z,76.04
2019-02-10T05:27:39.306Z,76.13
2019-02-10T05:28:44.745Z,76.15
2019-02-10T05:29:49.704Z,76.21
2019-02-10T05:30:55.025Z,76.28
2019-02-10T05:32:00.393Z,76.28
2019-02-10T05:33:05.560Z,76.33
2019-02-10T05:34:10.537Z,76.43
2019-02-10T05:35:15.559Z,76.42
2019-02-10T05:36:21.219Z,76.44
2019-02-10T05:37:26.633Z,76.45
2019-02-10T05:38:31.953Z,76.39
2019-02-10T05:39:36.929Z,76.40
2019-02-10T05:40:42.000Z,76.42
2019-02-10T05:41:47.059Z,76.42
2019-02-10T05:42:52.020Z,76.50
2019-02-10T05:43:57.060Z,76.50
2019-02-10T05:45:02.423Z,76.51
2019-02-10T05:46:07.379Z,76.56
2019-02-10T05:47:12.317Z,76.48
2019-02-10T05:48:17.306Z,76.48
2019-02-10T05:49:22.324Z,76.56
2019-02-10T05:50:28.280Z,76.59
2019-02-10T05:51:33.527Z,76.60
2019-02-10T05:52:38.511Z,76.62
2019-02-10T05:53:43.569Z,76.70
2019-02-10T05:54:48.549Z,76.69
2019-02-10T05:55:54.694Z,76.68
2019-02-10T05:56:59.597Z,76.77
2019-02-10T05:58:04.643Z,76.46
2019-02-10T05:59:10.004Z,76.46
2019-02-10T06:00:15.071Z,76.78
2019-02-10T06:02:44.366Z,76.39
2019-02-10T06:03:49.719Z,76.39
2019-02-10T06:04:54.976Z,76.80
2019-02-10T06:05:59.934Z,76.93
2019-02-10T06:07:08.873Z,76.98
2019-02-10T06:08:14.246Z,77.22
2019-02-10T06:09:19.663Z,77.22
2019-02-10T06:10:24.737Z,77.14
2019-02-10T06:11:29.822Z,77.13
2019-02-10T06:12:34.823Z,77.12
2019-02-10T06:13:40.029Z,77.17
2019-02-10T06:14:46.429Z,77.15
2019-02-10T06:15:51.762Z,77.16
2019-02-10T06:16:56.974Z,77.19
2019-02-10T06:18:02.022Z,77.14
2019-02-10T06:19:07.028Z,77.14
2019-02-10T06:20:12.091Z,77.22
2019-02-10T06:21:17.310Z,77.30
2019-02-10T06:22:22.561Z,77.37
2019-02-10T06:23:27.562Z,77.30
2019-02-10T06:24:33.072Z,77.30
2019-02-10T06:25:38.082Z,77.42
2019-02-10T06:26:43.505Z,77.38
2019-02-10T06:27:49.232Z,77.40
2019-02-10T06:28:54.211Z,77.33
2019-02-10T06:29:59.719Z,77.33
2019-02-10T06:31:04.988Z,77.37
2019-02-10T06:32:10.263Z,77.45
2019-02-10T06:33:15.671Z,77.54
2019-02-10T06:34:20.670Z,77.54
2019-02-10T06:35:26.083Z,77.61
2019-02-10T06:36:31.053Z,77.64
2019-02-10T06:37:36.070Z,77.64
2019-02-10T06:38:41.332Z,77.65
2019-02-10T06:39:46.812Z,77.69
2019-02-10T06:40:51.757Z,77.73
2019-02-10T06:41:56.708Z,77.72
2019-02-10T06:43:01.650Z,77.75
2019-02-10T06:44:07.031Z,77.73
2019-02-10T06:45:15.094Z,77.76
2019-02-10T06:46:20.384Z,77.75
2019-02-10T06:47:25.344Z,77.80
2019-02-10T06:48:30.948Z,77.57
2019-02-10T06:49:35.989Z,77.57
2019-02-10T06:50:40.962Z,77.83
2019-02-10T06:51:45.910Z,77.85
2019-02-10T06:52:51.705Z,77.93
2019-02-10T06:53:56.997Z,78.07
2019-02-10T06:55:02.068Z,78.07
2019-02-10T06:56:07.591Z,78.08
2019-02-10T06:57:13.267Z,78.08
2019-02-10T06:58:18.333Z,78.21
2019-02-10T06:59:42.498Z,78.16
2019-02-10T07:01:09.517Z,78.22
2019-02-10T07:02:46.632Z,78.25
2019-02-10T07:04:04.098Z,78.26
2019-02-10T07:05:10.882Z,78.33
2019-02-10T07:06:16.323Z,78.43
2019-02-10T07:07:21.303Z,78.48
2019-02-10T07:08:30.581Z,78.55
2019-02-10T07:09:33.043Z,78.57
2019-02-10T07:10:38.346Z,78.62
2019-02-10T07:11:43.675Z,78.64
2019-02-10T07:12:52.806Z,78.72
2019-02-10T07:13:59.673Z,78.79
2019-02-10T07:15:04.797Z,78.84
2019-02-10T07:16:35.538Z,78.93
2019-02-10T07:18:16.162Z,79.02
2019-02-10T07:19:57.430Z,78.88
2019-02-10T07:21:03.183Z,78.88
2019-02-10T07:22:54.805Z,78.86
2019-02-10T07:24:35.697Z,78.93
2019-02-10T07:26:00.929Z,78.96
2019-02-10T07:27:13.584Z,78.96
2019-02-10T07:28:44.792Z,79.18
2019-02-10T07:30:28.195Z,79.18
2019-02-10T07:31:41.616Z,79.05
2019-02-10T07:32:49.822Z,79.01
2019-02-10T07:34:48.202Z,78.99
2019-02-10T07:36:33.131Z,79.02
2019-02-10T07:38:18.837Z,78.97
2019-02-10T07:39:41.955Z,78.94
2019-02-10T07:41:39.602Z,78.93
2019-02-10T07:43:18.988Z,78.88
2019-02-10T07:44:51.025Z,78.83
2019-02-10T07:46:46.374Z,78.81
2019-02-10T07:48:17.729Z,78.75
2019-02-10T07:49:51.696Z,78.63
2019-02-10T07:51:46.774Z,79.04
2019-02-10T07:53:29.406Z,79.04
2019-02-10T07:55:21.834Z,78.40
2019-02-10T07:57:20.348Z,78.36
2019-02-10T07:58:50.687Z,78.19
2019-02-10T08:00:25.555Z,77.99
2019-02-10T08:01:57.381Z,78.06
2019-02-10T08:03:24.846Z,77.91
2019-02-10T08:04:58.231Z,77.81
2019-02-10T08:06:42.581Z,77.67
2019-02-10T08:08:02.778Z,77.64
2019-02-10T08:09:22.032Z,77.58
2019-02-10T08:10:56.511Z,77.50
2019-02-10T08:12:29.762Z,77.45
2019-02-10T08:14:06.884Z,77.37
2019-02-10T08:15:40.948Z,77.06
2019-02-10T08:17:16.509Z,77.06
2019-02-10T08:19:09.108Z,77.13
2019-02-10T08:20:38.328Z,77.10
2019-02-10T08:22:21.711Z,76.92
2019-02-10T08:23:52.913Z,77.10
2019-02-10T08:25:21.847Z,77.10
2019-02-10T08:27:04.027Z,76.79
2019-02-10T08:28:55.032Z,76.59
2019-02-10T08:30:40.462Z,76.50
2019-02-10T08:32:18.485Z,76.38
2019-02-10T08:33:37.615Z,76.37
2019-02-10T08:35:13.511Z,76.39
2019-02-10T08:36:39.348Z,76.40
2019-02-10T08:38:12.355Z,76.34
2019-02-10T08:39:40.092Z,76.35
2019-02-10T08:41:12.707Z,76.25
2019-02-10T08:42:40.414Z,76.11
2019-02-10T08:43:58.194Z,76.15
2019-02-10T08:45:34.308Z,76.07
2019-02-10T08:47:14.770Z,76.10
2019-02-10T08:49:10.586Z,75.96
2019-02-10T08:51:05.909Z,75.87
2019-02-10T08:52:41.155Z,75.59
2019-02-10T08:53:47.665Z,75.57
2019-02-10T08:54:52.698Z,75.52
2019-02-10T08:55:58.114Z,75.55
2019-02-10T08:57:03.247Z,75.58
2019-02-10T08:58:08.490Z,75.44
2019-02-10T08:59:13.848Z,75.40
2019-02-10T09:00:19.224Z,75.43
2019-02-10T09:01:24.260Z,75.37
2019-02-10T09:02:29.477Z,75.34
2019-02-10T09:03:34.514Z,75.32
2019-02-10T09:04:39.611Z,75.20
2019-02-10T09:05:45.022Z,75.19
2019-02-10T09:06:50.037Z,75.16
2019-02-10T09:07:55.040Z,75.07
2019-02-10T09:09:02.546Z,75.02
2019-02-10T09:10:08.650Z,74.91
2019-02-10T09:11:13.957Z,74.97
2019-02-10T09:12:19.102Z,74.94
2019-02-10T09:13:24.196Z,74.94
2019-02-10T09:14:29.509Z,74.92
2019-02-10T09:15:34.795Z,74.88
2019-02-10T09:16:39.785Z,74.81
2019-02-10T09:17:44.909Z,74.78
2019-02-10T09:18:49.997Z,74.78
2019-02-10T09:19:55.555Z,74.69
2019-02-10T09:21:00.666Z,74.67
2019-02-10T09:22:05.674Z,74.73
2019-02-10T09:23:10.758Z,74.81
2019-02-10T09:24:16.088Z,74.83
2019-02-10T09:25:21.121Z,74.81
2019-02-10T09:26:26.361Z,74.74
2019-02-10T09:27:31.592Z,74.77
2019-02-10T09:28:36.693Z,74.90
2019-02-10T09:29:41.963Z,75.01
2019-02-10T09:30:47.047Z,75.19
2019-02-10T09:31:52.206Z,75.42
2019-02-10T09:32:57.182Z,75.57
2019-02-10T09:34:02.188Z,75.71
2019-02-10T09:35:07.807Z,75.84
2019-02-10T09:36:12.798Z,75.95
2019-02-10T09:37:17.964Z,76.09
2019-02-10T09:38:23.022Z,76.18
2019-02-10T09:39:28.094Z,76.30
2019-02-10T09:40:33.029Z,76.39
2019-02-10T09:41:41.073Z,76.46
2019-02-10T09:42:46.175Z,76.51
2019-02-10T09:43:51.537Z,76.57
2019-02-10T09:44:56.794Z,76.65
2019-02-10T09:46:01.784Z,76.75
2019-02-10T09:47:07.172Z,76.91
2019-02-10T09:48:12.270Z,77.04
2019-02-10T09:49:17.689Z,77.12
2019-02-10T09:50:22.707Z,77.05
2019-02-10T09:51:28.264Z,77.09
2019-02-10T09:52:33.321Z,77.18
2019-02-10T09:53:38.655Z,77.30
2019-02-10T09:54:43.827Z,77.36
2019-02-10T09:55:49.206Z,77.37
2019-02-10T09:56:54.280Z,77.42
2019-02-10T09:57:59.340Z,77.44
2019-02-10T09:59:04.380Z,77.50
2019-02-10T10:00:11.897Z,77.49
2019-02-10T10:01:16.981Z,77.54
2019-02-10T10:02:22.288Z,77.57
2019-02-10T10:03:28.887Z,77.67
2019-02-10T10:04:34.500Z,77.77
2019-02-10T10:05:40.023Z,77.81
2019-02-10T10:06:45.019Z,77.86
2019-02-10T10:07:50.045Z,77.94
2019-02-10T10:08:55.034Z,78.05
2019-02-10T10:10:00.298Z,78.14
2019-02-10T10:11:05.656Z,78.10
2019-02-10T10:12:10.753Z,78.07
2019-02-10T10:13:15.825Z,78.12
2019-02-10T10:14:21.197Z,78.19
2019-02-10T10:15:26.607Z,78.29
2019-02-10T10:16:32.098Z,78.25
2019-02-10T10:17:37.257Z,78.30
2019-02-10T10:18:42.740Z,78.35
2019-02-10T10:19:48.115Z,78.42
2019-02-10T10:20:53.196Z,78.38
2019-02-10T10:21:58.191Z,78.44
2019-02-10T10:23:03.489Z,78.57
2019-02-10T10:24:08.526Z,78.66
2019-02-10T10:25:13.966Z,78.84
2019-02-10T10:26:19.027Z,78.87
2019-02-10T10:27:24.094Z,78.93
2019-02-10T10:28:29.285Z,79.02
2019-02-10T10:29:34.531Z,79.06
2019-02-10T10:30:39.940Z,79.01
2019-02-10T10:31:44.995Z,79.01
2019-02-10T10:32:50.805Z,79.03
2019-02-10T10:33:56.989Z,79.04
2019-02-10T10:35:02.009Z,79.00
2019-02-10T10:36:07.095Z,79.05
2019-02-10T10:37:12.053Z,79.06
2019-02-10T10:38:17.410Z,79.21
2019-02-10T10:39:27.365Z,79.25
2019-02-10T10:40:29.233Z,79.26
2019-02-10T10:41:34.312Z,79.28
2019-02-10T10:42:39.373Z,79.21
2019-02-10T10:43:44.545Z,79.23
2019-02-10T10:44:49.660Z,79.15
2019-02-10T10:45:54.837Z,79.23
2019-02-10T10:46:59.799Z,79.24
2019-02-10T10:48:04.906Z,79.26
2019-02-10T10:49:09.836Z,79.32
2019-02-10T10:50:15.314Z,79.30
2019-02-10T10:51:20.536Z,79.29
2019-02-10T10:52:25.929Z,79.19
2019-02-10T10:53:30.985Z,79.19
2019-02-10T10:54:42.666Z,79.10
2019-02-10T10:55:42.666Z,79.08
2019-02-10T10:56:47.639Z,78.98
2019-02-10T10:57:52.597Z,78.92
2019-02-10T10:58:57.576Z,79.08
2019-02-10T11:00:02.904Z,79.07
2019-02-10T11:01:08.176Z,79.07
2019-02-10T11:02:13.483Z,79.08
2019-02-10T11:03:18.707Z,79.03
2019-02-10T11:04:23.946Z,79.02
2019-02-10T11:05:29.043Z,78.83
2019-02-10T11:06:34.093Z,78.84
2019-02-10T11:07:39.302Z,78.82
2019-02-10T11:08:44.792Z,78.78
2019-02-10T11:09:50.120Z,78.78
2019-02-10T11:10:55.458Z,78.82
2019-02-10T11:12:00.357Z,78.95
2019-02-10T11:13:06.029Z,78.89
2019-02-10T11:14:11.275Z,78.84
2019-02-10T11:15:16.679Z,78.83
2019-02-10T11:16:21.911Z,78.78
2019-02-10T11:17:26.863Z,78.74
2019-02-10T11:18:31.976Z,78.56
2019-02-10T11:19:36.912Z,78.58
2019-02-10T11:20:42.140Z,78.60
2019-02-10T11:21:47.086Z,78.47
2019-02-10T11:22:52.232Z,78.46
2019-02-10T11:23:57.323Z,78.41
2019-02-10T11:25:02.312Z,78.21
2019-02-10T11:26:07.367Z,78.12
2019-02-10T11:27:12.609Z,78.06
2019-02-10T11:28:17.587Z,78.06
2019-02-10T11:29:22.557Z,77.97
2019-02-10T11:30:27.578Z,77.92
2019-02-10T11:31:32.998Z,77.82
2019-02-10T11:32:37.933Z,77.76
2019-02-10T11:33:42.889Z,77.65
2019-02-10T11:34:47.846Z,77.51
2019-02-10T11:35:53.282Z,77.33
2019-02-10T11:36:58.373Z,77.41
2019-02-10T11:38:03.527Z,77.27
2019-02-10T11:39:09.035Z,77.22
2019-02-10T11:40:14.919Z,77.12
2019-02-10T11:41:20.290Z,77.11
2019-02-10T11:42:25.736Z,76.91
2019-02-10T11:43:31.025Z,76.92
2019-02-10T11:44:36.035Z,76.39
2019-02-10T11:45:41.051Z,76.39
2019-02-10T11:46:46.138Z,76.51
2019-02-10T11:47:51.259Z,76.45
2019-02-10T11:48:56.274Z,76.37
2019-02-10T11:50:01.836Z,76.46
2019-02-10T11:51:07.119Z,76.24
2019-02-10T11:52:12.106Z,76.23
2019-02-10T11:53:17.289Z,76.20
2019-02-10T11:54:22.338Z,75.93
2019-02-10T11:55:27.762Z,75.84
2019-02-10T11:56:32.773Z,75.75
2019-02-10T11:57:38.205Z,75.75
2019-02-10T11:58:43.179Z,75.72
2019-02-10T11:59:48.238Z,75.67
2019-02-10T12:00:53.271Z,75.55
2019-02-10T12:01:58.566Z,75.34
2019-02-10T12:03:03.869Z,75.22
2019-02-10T12:04:08.864Z,75.16
2019-02-10T12:05:13.985Z,75.16
2019-02-10T12:06:19.313Z,75.12
2019-02-10T12:07:24.560Z,75.07
2019-02-10T12:08:35.584Z,75.20
2019-02-10T12:09:36.310Z,75.24
2019-02-10T12:10:41.707Z,75.22
2019-02-10T12:11:46.881Z,75.22
2019-02-10T12:12:52.016Z,75.16
2019-02-10T12:13:57.470Z,75.07
2019-02-10T12:15:03.069Z,75.12
2019-02-10T12:16:08.072Z,74.97
2019-02-10T12:17:13.436Z,74.97
2019-02-10T12:18:18.460Z,75.01
2019-02-10T12:19:23.464Z,75.21
2019-02-10T12:20:28.575Z,75.24
2019-02-10T12:21:33.846Z,75.17
2019-02-10T12:22:39.021Z,75.22
2019-02-10T12:23:43.973Z,75.22
2019-02-10T12:24:49.136Z,75.23
2019-02-10T12:25:54.071Z,75.28
2019-02-10T12:26:58.997Z,75.36
2019-02-10T12:28:04.193Z,75.35
2019-02-10T12:29:09.555Z,75.38
2019-02-10T12:30:14.713Z,75.50
2019-02-10T12:31:19.733Z,75.46
2019-02-10T12:32:24.810Z,75.36
2019-02-10T12:33:29.753Z,75.36
2019-02-10T12:34:35.063Z,75.28
2019-02-10T12:35:40.324Z,75.23
2019-02-10T12:36:45.263Z,75.28
2019-02-10T12:37:50.215Z,75.37
2019-02-10T12:38:55.652Z,75.36
2019-02-10T12:40:01.548Z,75.40
2019-02-10T12:41:06.600Z,75.38
2019-02-10T12:42:11.532Z,75.37
2019-02-10T12:43:16.566Z,75.26
2019-02-10T12:44:21.653Z,75.27
2019-02-10T12:45:26.774Z,75.32
2019-02-10T12:46:31.783Z,75.34
2019-02-10T12:47:36.812Z,75.32
2019-02-10T12:48:42.229Z,75.31
2019-02-10T12:49:47.238Z,75.37
2019-02-10T12:50:52.650Z,75.33
2019-02-10T12:51:58.539Z,75.39
2019-02-10T12:53:03.853Z,75.38
2019-02-10T12:54:08.830Z,75.40
2019-02-10T12:55:14.368Z,75.48
2019-02-10T12:56:19.831Z,75.60
2019-02-10T12:57:25.210Z,75.61
2019-02-10T12:58:30.295Z,75.66
2019-02-10T12:59:35.242Z,75.59
2019-02-10T13:00:40.526Z,75.64
2019-02-10T13:01:45.618Z,75.79
2019-02-10T13:02:50.960Z,75.83
2019-02-10T13:03:55.980Z,75.91
2019-02-10T13:05:01.005Z,75.89
2019-02-10T13:06:06.342Z,75.85
2019-02-10T13:07:11.975Z,75.84
2019-02-10T13:08:17.020Z,75.80
2019-02-10T13:09:22.118Z,75.88
2019-02-10T13:10:27.111Z,76.04
2019-02-10T13:11:32.324Z,76.11
2019-02-10T13:12:37.682Z,76.07
2019-02-10T13:13:42.737Z,75.97
2019-02-10T13:14:47.990Z,75.86
2019-02-10T13:15:55.484Z,75.70
2019-02-10T13:16:59.876Z,75.65
2019-02-10T13:18:04.910Z,75.64
2019-02-10T13:19:10.008Z,75.58
2019-02-10T13:20:15.023Z,75.46
2019-02-10T13:21:20.056Z,75.35
2019-02-10T13:22:25.065Z,75.12
2019-02-10T13:23:30.132Z,75.05
2019-02-10T13:24:35.462Z,74.95
2019-02-10T13:25:40.461Z,74.87
2019-02-10T13:26:45.604Z,74.77
2019-02-10T13:27:50.535Z,74.44
2019-02-10T13:28:55.769Z,74.30
2019-02-10T13:30:02.902Z,74.33
2019-02-10T13:31:07.961Z,74.28
2019-02-10T13:32:13.285Z,74.35
2019-02-10T13:33:18.258Z,74.34
2019-02-10T13:34:23.654Z,74.24
2019-02-10T13:35:28.663Z,74.21
2019-02-10T13:36:33.711Z,74.09
2019-02-10T13:37:38.845Z,74.16
2019-02-10T13:38:43.926Z,74.09
2019-02-10T13:39:48.911Z,74.01
2019-02-10T13:40:54.450Z,73.92
2019-02-10T13:41:59.896Z,73.81
2019-02-10T13:43:04.900Z,73.65
2019-02-10T13:44:10.142Z,73.65
2019-02-10T13:45:15.207Z,73.51
2019-02-10T13:46:20.178Z,73.45
2019-02-10T13:47:25.120Z,73.40
2019-02-10T13:48:30.955Z,73.14
2019-02-10T13:49:35.956Z,73.14
2019-02-10T13:50:40.975Z,73.09
2019-02-10T13:51:45.983Z,72.98
2019-02-10T13:52:51.237Z,73.00
2019-02-10T13:53:56.364Z,73.04
2019-02-10T13:55:01.376Z,72.94
2019-02-10T13:56:06.546Z,72.85
2019-02-10T13:57:11.620Z,72.73
2019-02-10T13:58:16.922Z,72.72
2019-02-10T13:59:22.311Z,72.51
2019-02-10T14:00:28.634Z,72.47
2019-02-10T14:01:33.862Z,72.48
2019-02-10T14:02:38.835Z,72.47
2019-02-10T14:03:44.183Z,72.42
2019-02-10T14:07:06.052Z,72.11
2019-02-10T14:08:11.609Z,72.09
2019-02-10T14:09:16.599Z,72.21
2019-02-10T14:10:25.846Z,72.22
2019-02-10T14:11:28.854Z,72.08
2019-02-10T14:12:33.788Z,72.04
2019-02-10T14:13:38.718Z,71.96
2019-02-10T14:14:43.718Z,71.98
2019-02-10T14:15:48.688Z,72.02
2019-02-10T14:16:54.011Z,71.92
2019-02-10T14:17:58.960Z,71.93
2019-02-10T14:19:04.296Z,71.92
2019-02-10T14:20:11.599Z,71.80
2019-02-10T14:21:16.578Z,71.83
2019-02-10T14:22:21.579Z,71.80
2019-02-10T14:23:26.488Z,71.73
2019-02-10T14:24:31.639Z,71.72
2019-02-10T14:25:37.088Z,71.52
2019-02-10T14:26:42.327Z,71.61
2019-02-10T14:27:47.344Z,71.59
2019-02-10T14:28:52.301Z,71.64
2019-02-10T14:29:57.998Z,71.55
2019-02-10T14:31:04.359Z,71.68
2019-02-10T14:32:09.375Z,71.75
2019-02-10T14:33:14.298Z,71.82
2019-02-10T14:34:19.746Z,71.88
2019-02-10T14:35:24.816Z,72.03
2019-02-10T14:36:29.764Z,72.15
2019-02-10T14:37:34.783Z,72.36